sensor_id;sensor_type;location;lat;lon;timestamp;P1;durP1;ratioP1;P2;durP2;ratioP2
36445;SDS011;22472;50.848;-1.216;2024-03-08T00:02:18;81.63;;;45.42;;
36445;SDS011;22472;50.848;-1.216;2024-03-08T00:04:47;88.45;;;45.70;;
36445;SDS011;22472;50.848;-1.216;2024-03-08T00:07:14;84.25;;;46.10;;
36445;SDS011;22472;50.848;-1.216;2024-03-08T00:09:41;81.15;;;45.05;;
36445;SDS011;22472;50.848;-1.216;2024-03-08T00:12:09;83.68;;;45.40;;
36445;SDS011;22472;50.848;-1.216;2024-03-08T00:14:36;87.28;;;46.35;;
36445;SDS011;22472;50.848;-1.216;2024-03-08T00:17:04;82.03;;;46.00;;
36445;SDS011;22472;50.848;-1.216;2024-03-08T00:19:31;78.93;;;45.10;;
36445;SDS011;22472;50.848;-1.216;2024-03-08T00:22:00;79.43;;;44.78;;
36445;SDS011;22472;50.848;-1.216;2024-03-08T00:24:27;83.10;;;46.53;;
36445;SDS011;22472;50.848;-1.216;2024-03-08T00:26:56;83.53;;;46.00;;
36445;SDS011;22472;50.848;-1.216;2024-03-08T00:29:23;83.82;;;45.92;;
36445;SDS011;22472;50.848;-1.216;2024-03-08T00:31:51;80.93;;;46.08;;
36445;SDS011;22472;50.848;-1.216;2024-03-08T00:34:18;84.60;;;47.05;;
36445;SDS011;22472;50.848;-1.216;2024-03-08T00:36:45;80.38;;;43.83;;
36445;SDS011;22472;50.848;-1.216;2024-03-08T00:39:15;86.38;;;47.13;;
36445;SDS011;22472;50.848;-1.216;2024-03-08T00:41:42;84.60;;;46.65;;
36445;SDS011;22472;50.848;-1.216;2024-03-08T00:44:09;81.80;;;45.95;;
36445;SDS011;22472;50.848;-1.216;2024-03-08T00:46:37;82.43;;;47.15;;
36445;SDS011;22472;50.848;-1.216;2024-03-08T00:49:04;85.43;;;47.55;;
36445;SDS011;22472;50.848;-1.216;2024-03-08T00:51:31;83.63;;;45.88;;
36445;SDS011;22472;50.848;-1.216;2024-03-08T00:53:59;83.13;;;45.75;;
36445;SDS011;22472;50.848;-1.216;2024-03-08T00:56:27;83.40;;;46.78;;
36445;SDS011;22472;50.848;-1.216;2024-03-08T00:58:54;83.82;;;46.03;;
36445;SDS011;22472;50.848;-1.216;2024-03-08T01:01:22;82.22;;;45.58;;
36445;SDS011;22472;50.848;-1.216;2024-03-08T01:03:49;85.47;;;47.00;;
36445;SDS011;22472;50.848;-1.216;2024-03-08T01:06:17;81.28;;;46.47;;
36445;SDS011;22472;50.848;-1.216;2024-03-08T01:08:44;88.93;;;47.67;;
36445;SDS011;22472;50.848;-1.216;2024-03-08T01:11:12;81.10;;;46.55;;
36445;SDS011;22472;50.848;-1.216;2024-03-08T01:13:41;87.25;;;48.35;;
36445;SDS011;22472;50.848;-1.216;2024-03-08T01:16:08;84.70;;;47.47;;
36445;SDS011;22472;50.848;-1.216;2024-03-08T01:18:36;86.68;;;46.78;;
36445;SDS011;22472;50.848;-1.216;2024-03-08T01:21:03;85.57;;;46.72;;
36445;SDS011;22472;50.848;-1.216;2024-03-08T01:23:31;84.47;;;47.90;;
36445;SDS011;22472;50.848;-1.216;2024-03-08T01:25:59;82.93;;;46.20;;
36445;SDS011;22472;50.848;-1.216;2024-03-08T01:28:27;82.80;;;46.78;;
36445;SDS011;22472;50.848;-1.216;2024-03-08T01:30:56;86.82;;;47.28;;
36445;SDS011;22472;50.848;-1.216;2024-03-08T01:33:23;85.13;;;46.83;;
36445;SDS011;22472;50.848;-1.216;2024-03-08T01:35:51;87.07;;;47.30;;
36445;SDS011;22472;50.848;-1.216;2024-03-08T01:38:18;85.70;;;46.63;;
36445;SDS011;22472;50.848;-1.216;2024-03-08T01:40:46;93.38;;;48.13;;
36445;SDS011;22472;50.848;-1.216;2024-03-08T01:43:17;90.07;;;49.05;;
36445;SDS011;22472;50.848;-1.216;2024-03-08T01:45:45;89.47;;;47.50;;
36445;SDS011;22472;50.848;-1.216;2024-03-08T01:48:13;84.55;;;45.67;;
36445;SDS011;22472;50.848;-1.216;2024-03-08T01:50:42;88.07;;;47.67;;
36445;SDS011;22472;50.848;-1.216;2024-03-08T01:53:09;88.10;;;47.72;;
36445;SDS011;22472;50.848;-1.216;2024-03-08T01:55:38;88.57;;;48.85;;
36445;SDS011;22472;50.848;-1.216;2024-03-08T01:58:05;84.88;;;46.90;;
36445;SDS011;22472;50.848;-1.216;2024-03-08T02:00:33;85.60;;;47.70;;
36445;SDS011;22472;50.848;-1.216;2024-03-08T02:03:01;91.45;;;48.90;;
36445;SDS011;22472;50.848;-1.216;2024-03-08T02:05:30;91.85;;;46.65;;
36445;SDS011;22472;50.848;-1.216;2024-03-08T02:07:58;87.68;;;47.50;;
36445;SDS011;22472;50.848;-1.216;2024-03-08T02:10:25;92.93;;;48.63;;
36445;SDS011;22472;50.848;-1.216;2024-03-08T02:12:52;91.13;;;49.13;;
36445;SDS011;22472;50.848;-1.216;2024-03-08T02:15:19;93.78;;;49.80;;
36445;SDS011;22472;50.848;-1.216;2024-03-08T02:17:48;97.00;;;49.72;;
36445;SDS011;22472;50.848;-1.216;2024-03-08T02:20:15;97.18;;;48.20;;
36445;SDS011;22472;50.848;-1.216;2024-03-08T02:22:46;94.38;;;49.92;;
36445;SDS011;22472;50.848;-1.216;2024-03-08T02:25:13;100.25;;;48.97;;
36445;SDS011;22472;50.848;-1.216;2024-03-08T02:27:40;95.53;;;49.75;;
36445;SDS011;22472;50.848;-1.216;2024-03-08T02:30:08;90.03;;;47.78;;
36445;SDS011;22472;50.848;-1.216;2024-03-08T02:32:37;93.97;;;47.67;;
36445;SDS011;22472;50.848;-1.216;2024-03-08T02:35:04;92.03;;;46.97;;
36445;SDS011;22472;50.848;-1.216;2024-03-08T02:37:31;91.38;;;47.60;;
36445;SDS011;22472;50.848;-1.216;2024-03-08T02:40:00;97.50;;;48.15;;
36445;SDS011;22472;50.848;-1.216;2024-03-08T02:42:27;95.13;;;48.53;;
36445;SDS011;22472;50.848;-1.216;2024-03-08T02:44:54;95.05;;;48.10;;
36445;SDS011;22472;50.848;-1.216;2024-03-08T02:47:21;92.20;;;48.50;;
36445;SDS011;22472;50.848;-1.216;2024-03-08T02:49:48;93.20;;;48.30;;
36445;SDS011;22472;50.848;-1.216;2024-03-08T02:52:17;99.30;;;48.88;;
36445;SDS011;22472;50.848;-1.216;2024-03-08T02:54:46;98.10;;;49.75;;
36445;SDS011;22472;50.848;-1.216;2024-03-08T02:57:14;93.55;;;49.58;;
36445;SDS011;22472;50.848;-1.216;2024-03-08T02:59:42;94.20;;;48.00;;
36445;SDS011;22472;50.848;-1.216;2024-03-08T03:04:45;98.63;;;47.65;;
36445;SDS011;22472;50.848;-1.216;2024-03-08T03:07:13;92.07;;;47.47;;
36445;SDS011;22472;50.848;-1.216;2024-03-08T03:09:40;96.07;;;47.78;;
36445;SDS011;22472;50.848;-1.216;2024-03-08T03:12:07;96.07;;;47.92;;
36445;SDS011;22472;50.848;-1.216;2024-03-08T03:14:36;95.43;;;47.08;;
36445;SDS011;22472;50.848;-1.216;2024-03-08T03:17:04;97.32;;;47.50;;
36445;SDS011;22472;50.848;-1.216;2024-03-08T03:19:31;95.60;;;48.63;;
36445;SDS011;22472;50.848;-1.216;2024-03-08T03:21:59;91.65;;;48.10;;
36445;SDS011;22472;50.848;-1.216;2024-03-08T03:24:26;98.15;;;48.50;;
36445;SDS011;22472;50.848;-1.216;2024-03-08T03:26:54;100.13;;;48.05;;
36445;SDS011;22472;50.848;-1.216;2024-03-08T03:29:22;98.93;;;48.20;;
36445;SDS011;22472;50.848;-1.216;2024-03-08T03:31:51;89.38;;;46.75;;
36445;SDS011;22472;50.848;-1.216;2024-03-08T03:34:38;95.70;;;46.72;;
36445;SDS011;22472;50.848;-1.216;2024-03-08T03:37:05;94.10;;;46.17;;
36445;SDS011;22472;50.848;-1.216;2024-03-08T03:39:33;95.93;;;46.75;;
36445;SDS011;22472;50.848;-1.216;2024-03-08T03:42:05;94.97;;;48.35;;
36445;SDS011;22472;50.848;-1.216;2024-03-08T03:44:33;93.63;;;47.17;;
36445;SDS011;22472;50.848;-1.216;2024-03-08T03:47:01;92.00;;;46.45;;
36445;SDS011;22472;50.848;-1.216;2024-03-08T03:49:29;92.72;;;47.05;;
36445;SDS011;22472;50.848;-1.216;2024-03-08T03:51:56;97.32;;;46.95;;
36445;SDS011;22472;50.848;-1.216;2024-03-08T03:54:23;88.97;;;46.40;;
36445;SDS011;22472;50.848;-1.216;2024-03-08T03:56:50;93.88;;;46.45;;
36445;SDS011;22472;50.848;-1.216;2024-03-08T03:59:18;93.43;;;46.70;;
36445;SDS011;22472;50.848;-1.216;2024-03-08T04:01:45;97.10;;;46.65;;
36445;SDS011;22472;50.848;-1.216;2024-03-08T04:04:16;90.95;;;45.95;;
36445;SDS011;22472;50.848;-1.216;2024-03-08T04:06:43;95.50;;;46.72;;
36445;SDS011;22472;50.848;-1.216;2024-03-08T04:09:11;86.10;;;44.67;;
36445;SDS011;22472;50.848;-1.216;2024-03-08T04:11:38;92.50;;;45.95;;
36445;SDS011;22472;50.848;-1.216;2024-03-08T04:14:06;90.57;;;44.38;;
36445;SDS011;22472;50.848;-1.216;2024-03-08T04:16:33;93.25;;;44.65;;
36445;SDS011;22472;50.848;-1.216;2024-03-08T04:19:00;91.95;;;44.70;;
36445;SDS011;22472;50.848;-1.216;2024-03-08T04:21:31;89.80;;;44.38;;
36445;SDS011;22472;50.848;-1.216;2024-03-08T04:23:58;88.55;;;43.97;;
36445;SDS011;22472;50.848;-1.216;2024-03-08T04:26:25;85.40;;;43.45;;
36445;SDS011;22472;50.848;-1.216;2024-03-08T04:28:52;91.57;;;44.83;;
36445;SDS011;22472;50.848;-1.216;2024-03-08T04:31:20;89.40;;;43.55;;
36445;SDS011;22472;50.848;-1.216;2024-03-08T04:33:47;88.28;;;44.22;;
36445;SDS011;22472;50.848;-1.216;2024-03-08T04:36:15;82.75;;;42.97;;
36445;SDS011;22472;50.848;-1.216;2024-03-08T04:38:43;84.43;;;42.47;;
36445;SDS011;22472;50.848;-1.216;2024-03-08T04:41:11;85.22;;;42.58;;
36445;SDS011;22472;50.848;-1.216;2024-03-08T04:43:38;87.50;;;43.83;;
36445;SDS011;22472;50.848;-1.216;2024-03-08T04:46:05;82.82;;;42.28;;
36445;SDS011;22472;50.848;-1.216;2024-03-08T04:48:33;86.30;;;43.97;;
36445;SDS011;22472;50.848;-1.216;2024-03-08T04:51:01;84.20;;;41.47;;
36445;SDS011;22472;50.848;-1.216;2024-03-08T04:53:29;88.15;;;43.05;;
36445;SDS011;22472;50.848;-1.216;2024-03-08T04:55:59;90.35;;;43.55;;
36445;SDS011;22472;50.848;-1.216;2024-03-08T04:58:31;82.78;;;41.58;;
36445;SDS011;22472;50.848;-1.216;2024-03-08T05:00:59;93.88;;;44.95;;
36445;SDS011;22472;50.848;-1.216;2024-03-08T05:03:27;86.07;;;43.15;;
36445;SDS011;22472;50.848;-1.216;2024-03-08T05:05:55;87.05;;;42.65;;
36445;SDS011;22472;50.848;-1.216;2024-03-08T05:08:22;87.45;;;42.63;;
36445;SDS011;22472;50.848;-1.216;2024-03-08T05:10:51;87.05;;;42.97;;
36445;SDS011;22472;50.848;-1.216;2024-03-08T05:13:19;80.55;;;41.25;;
36445;SDS011;22472;50.848;-1.216;2024-03-08T05:15:48;87.47;;;41.85;;
36445;SDS011;22472;50.848;-1.216;2024-03-08T05:18:16;84.55;;;41.97;;
36445;SDS011;22472;50.848;-1.216;2024-03-08T05:20:43;80.97;;;40.97;;
36445;SDS011;22472;50.848;-1.216;2024-03-08T05:23:10;84.45;;;41.70;;
36445;SDS011;22472;50.848;-1.216;2024-03-08T05:25:38;94.25;;;42.58;;
36445;SDS011;22472;50.848;-1.216;2024-03-08T05:28:06;83.60;;;41.50;;
36445;SDS011;22472;50.848;-1.216;2024-03-08T05:30:35;82.25;;;41.20;;
36445;SDS011;22472;50.848;-1.216;2024-03-08T05:33:02;82.85;;;40.38;;
36445;SDS011;22472;50.848;-1.216;2024-03-08T05:35:30;80.53;;;40.80;;
36445;SDS011;22472;50.848;-1.216;2024-03-08T05:37:57;84.43;;;40.45;;
36445;SDS011;22472;50.848;-1.216;2024-03-08T05:40:25;81.70;;;40.75;;
36445;SDS011;22472;50.848;-1.216;2024-03-08T05:42:52;82.97;;;41.53;;
36445;SDS011;22472;50.848;-1.216;2024-03-08T05:45:19;83.00;;;39.50;;
36445;SDS011;22472;50.848;-1.216;2024-03-08T05:47:48;78.20;;;38.85;;
36445;SDS011;22472;50.848;-1.216;2024-03-08T05:50:17;84.40;;;41.00;;
36445;SDS011;22472;50.848;-1.216;2024-03-08T05:52:44;85.88;;;40.97;;
36445;SDS011;22472;50.848;-1.216;2024-03-08T05:55:12;80.10;;;39.72;;
36445;SDS011;22472;50.848;-1.216;2024-03-08T05:57:40;78.90;;;39.50;;
36445;SDS011;22472;50.848;-1.216;2024-03-08T06:00:08;81.55;;;40.00;;
36445;SDS011;22472;50.848;-1.216;2024-03-08T06:02:36;77.55;;;38.90;;
36445;SDS011;22472;50.848;-1.216;2024-03-08T06:05:08;77.85;;;39.38;;
36445;SDS011;22472;50.848;-1.216;2024-03-08T06:07:36;78.07;;;38.72;;
36445;SDS011;22472;50.848;-1.216;2024-03-08T06:10:06;78.90;;;39.08;;
36445;SDS011;22472;50.848;-1.216;2024-03-08T06:12:35;81.13;;;40.30;;
36445;SDS011;22472;50.848;-1.216;2024-03-08T06:15:05;82.60;;;40.75;;
36445;SDS011;22472;50.848;-1.216;2024-03-08T06:17:33;74.53;;;39.00;;
36445;SDS011;22472;50.848;-1.216;2024-03-08T06:20:01;83.32;;;39.60;;
36445;SDS011;22472;50.848;-1.216;2024-03-08T06:22:30;84.05;;;40.38;;
36445;SDS011;22472;50.848;-1.216;2024-03-08T06:24:58;79.30;;;39.00;;
36445;SDS011;22472;50.848;-1.216;2024-03-08T06:27:25;76.05;;;37.95;;
36445;SDS011;22472;50.848;-1.216;2024-03-08T06:29:52;78.05;;;38.90;;
36445;SDS011;22472;50.848;-1.216;2024-03-08T06:32:19;83.82;;;40.28;;
36445;SDS011;22472;50.848;-1.216;2024-03-08T06:34:48;82.82;;;39.45;;
36445;SDS011;22472;50.848;-1.216;2024-03-08T06:37:15;79.78;;;38.15;;
36445;SDS011;22472;50.848;-1.216;2024-03-08T06:39:48;77.72;;;37.97;;
36445;SDS011;22472;50.848;-1.216;2024-03-08T06:42:16;76.95;;;38.08;;
36445;SDS011;22472;50.848;-1.216;2024-03-08T06:44:43;75.10;;;37.47;;
36445;SDS011;22472;50.848;-1.216;2024-03-08T06:47:14;78.47;;;37.90;;
36445;SDS011;22472;50.848;-1.216;2024-03-08T06:49:42;74.22;;;37.08;;
36445;SDS011;22472;50.848;-1.216;2024-03-08T06:52:09;77.72;;;38.13;;
36445;SDS011;22472;50.848;-1.216;2024-03-08T06:54:37;73.60;;;37.38;;
36445;SDS011;22472;50.848;-1.216;2024-03-08T06:57:06;74.15;;;36.38;;
36445;SDS011;22472;50.848;-1.216;2024-03-08T06:59:35;70.03;;;35.42;;
36445;SDS011;22472;50.848;-1.216;2024-03-08T07:02:02;72.88;;;36.92;;
36445;SDS011;22472;50.848;-1.216;2024-03-08T07:04:30;72.50;;;35.33;;
36445;SDS011;22472;50.848;-1.216;2024-03-08T07:06:58;68.88;;;35.42;;
36445;SDS011;22472;50.848;-1.216;2024-03-08T07:09:27;68.00;;;35.38;;
36445;SDS011;22472;50.848;-1.216;2024-03-08T07:11:54;65.38;;;33.97;;
36445;SDS011;22472;50.848;-1.216;2024-03-08T07:14:23;68.10;;;35.17;;
36445;SDS011;22472;50.848;-1.216;2024-03-08T07:16:51;64.95;;;33.95;;
36445;SDS011;22472;50.848;-1.216;2024-03-08T07:19:18;65.65;;;31.52;;
36445;SDS011;22472;50.848;-1.216;2024-03-08T07:21:46;66.28;;;34.58;;
36445;SDS011;22472;50.848;-1.216;2024-03-08T07:24:13;63.38;;;33.13;;
36445;SDS011;22472;50.848;-1.216;2024-03-08T07:27:05;63.38;;;32.85;;
36445;SDS011;22472;50.848;-1.216;2024-03-08T07:29:33;58.13;;;32.47;;
36445;SDS011;22472;50.848;-1.216;2024-03-08T07:32:01;64.80;;;33.25;;
36445;SDS011;22472;50.848;-1.216;2024-03-08T07:34:37;60.10;;;32.42;;
36445;SDS011;22472;50.848;-1.216;2024-03-08T07:37:05;60.95;;;31.52;;
36445;SDS011;22472;50.848;-1.216;2024-03-08T07:39:36;58.67;;;31.08;;
36445;SDS011;22472;50.848;-1.216;2024-03-08T07:42:04;61.28;;;31.55;;
36445;SDS011;22472;50.848;-1.216;2024-03-08T07:44:31;59.92;;;31.55;;
36445;SDS011;22472;50.848;-1.216;2024-03-08T07:47:00;58.08;;;32.00;;
36445;SDS011;22472;50.848;-1.216;2024-03-08T07:49:28;58.97;;;30.05;;
36445;SDS011;22472;50.848;-1.216;2024-03-08T07:51:56;59.92;;;31.80;;
36445;SDS011;22472;50.848;-1.216;2024-03-08T07:54:24;55.83;;;30.63;;
36445;SDS011;22472;50.848;-1.216;2024-03-08T07:56:52;63.35;;;32.80;;
36445;SDS011;22472;50.848;-1.216;2024-03-08T07:59:19;62.92;;;32.03;;
36445;SDS011;22472;50.848;-1.216;2024-03-08T08:01:46;53.35;;;28.50;;
36445;SDS011;22472;50.848;-1.216;2024-03-08T08:04:15;53.25;;;29.98;;
36445;SDS011;22472;50.848;-1.216;2024-03-08T08:06:43;58.47;;;31.70;;
36445;SDS011;22472;50.848;-1.216;2024-03-08T08:09:10;55.95;;;30.27;;
36445;SDS011;22472;50.848;-1.216;2024-03-08T08:11:40;57.55;;;29.58;;
36445;SDS011;22472;50.848;-1.216;2024-03-08T08:14:08;53.53;;;29.90;;
36445;SDS011;22472;50.848;-1.216;2024-03-08T08:16:35;57.60;;;31.25;;
36445;SDS011;22472;50.848;-1.216;2024-03-08T08:19:03;53.90;;;29.05;;
36445;SDS011;22472;50.848;-1.216;2024-03-08T08:21:34;55.65;;;30.17;;
36445;SDS011;22472;50.848;-1.216;2024-03-08T08:24:02;56.33;;;29.70;;
36445;SDS011;22472;50.848;-1.216;2024-03-08T08:26:29;55.33;;;30.13;;
36445;SDS011;22472;50.848;-1.216;2024-03-08T08:28:58;51.38;;;28.80;;
36445;SDS011;22472;50.848;-1.216;2024-03-08T08:31:25;52.60;;;29.60;;
36445;SDS011;22472;50.848;-1.216;2024-03-08T08:33:55;51.83;;;28.30;;
36445;SDS011;22472;50.848;-1.216;2024-03-08T08:36:23;50.72;;;28.63;;
36445;SDS011;22472;50.848;-1.216;2024-03-08T08:38:52;50.15;;;28.27;;
36445;SDS011;22472;50.848;-1.216;2024-03-08T08:41:21;54.35;;;28.85;;
36445;SDS011;22472;50.848;-1.216;2024-03-08T08:43:48;52.88;;;29.50;;
36445;SDS011;22472;50.848;-1.216;2024-03-08T08:46:16;49.25;;;28.20;;
36445;SDS011;22472;50.848;-1.216;2024-03-08T08:48:44;52.17;;;28.08;;
36445;SDS011;22472;50.848;-1.216;2024-03-08T08:51:11;46.67;;;26.52;;
36445;SDS011;22472;50.848;-1.216;2024-03-08T08:53:39;49.00;;;27.77;;
36445;SDS011;22472;50.848;-1.216;2024-03-08T08:56:09;46.13;;;27.10;;
36445;SDS011;22472;50.848;-1.216;2024-03-08T08:58:38;49.50;;;28.37;;
36445;SDS011;22472;50.848;-1.216;2024-03-08T09:01:06;47.65;;;27.40;;
36445;SDS011;22472;50.848;-1.216;2024-03-08T09:03:35;48.65;;;28.20;;
36445;SDS011;22472;50.848;-1.216;2024-03-08T09:06:02;45.67;;;26.77;;
36445;SDS011;22472;50.848;-1.216;2024-03-08T09:08:30;44.35;;;26.90;;
36445;SDS011;22472;50.848;-1.216;2024-03-08T09:10:59;44.60;;;25.40;;
36445;SDS011;22472;50.848;-1.216;2024-03-08T09:13:28;45.50;;;26.55;;
36445;SDS011;22472;50.848;-1.216;2024-03-08T09:15:55;44.58;;;26.92;;
36445;SDS011;22472;50.848;-1.216;2024-03-08T09:18:23;44.22;;;24.98;;
36445;SDS011;22472;50.848;-1.216;2024-03-08T09:20:50;41.42;;;25.80;;
36445;SDS011;22472;50.848;-1.216;2024-03-08T09:23:19;45.30;;;25.98;;
36445;SDS011;22472;50.848;-1.216;2024-03-08T09:25:46;43.60;;;26.10;;
36445;SDS011;22472;50.848;-1.216;2024-03-08T09:28:14;40.20;;;24.90;;
36445;SDS011;22472;50.848;-1.216;2024-03-08T09:30:42;43.83;;;25.08;;
36445;SDS011;22472;50.848;-1.216;2024-03-08T09:33:09;47.22;;;26.50;;
36445;SDS011;22472;50.848;-1.216;2024-03-08T09:35:36;41.53;;;24.60;;
36445;SDS011;22472;50.848;-1.216;2024-03-08T09:38:04;39.90;;;24.70;;
36445;SDS011;22472;50.848;-1.216;2024-03-08T09:40:36;39.08;;;24.92;;
36445;SDS011;22472;50.848;-1.216;2024-03-08T09:43:03;41.30;;;24.77;;
36445;SDS011;22472;50.848;-1.216;2024-03-08T09:45:30;41.30;;;24.45;;
36445;SDS011;22472;50.848;-1.216;2024-03-08T09:48:00;38.42;;;23.65;;
36445;SDS011;22472;50.848;-1.216;2024-03-08T09:50:27;37.50;;;23.83;;
36445;SDS011;22472;50.848;-1.216;2024-03-08T09:52:54;37.08;;;23.67;;
36445;SDS011;22472;50.848;-1.216;2024-03-08T09:55:23;36.00;;;23.38;;
36445;SDS011;22472;50.848;-1.216;2024-03-08T09:57:56;38.03;;;24.10;;
36445;SDS011;22472;50.848;-1.216;2024-03-08T10:01:01;34.58;;;22.50;;
36445;SDS011;22472;50.848;-1.216;2024-03-08T10:03:31;37.45;;;23.27;;
36445;SDS011;22472;50.848;-1.216;2024-03-08T10:05:58;40.45;;;24.45;;
36445;SDS011;22472;50.848;-1.216;2024-03-08T10:08:26;36.22;;;22.98;;
36445;SDS011;22472;50.848;-1.216;2024-03-08T10:10:55;34.42;;;22.13;;
36445;SDS011;22472;50.848;-1.216;2024-03-08T10:13:23;34.15;;;23.05;;
36445;SDS011;22472;50.848;-1.216;2024-03-08T10:15:52;39.70;;;23.88;;
36445;SDS011;22472;50.848;-1.216;2024-03-08T10:18:19;38.85;;;22.98;;
36445;SDS011;22472;50.848;-1.216;2024-03-08T10:20:48;35.95;;;22.88;;
36445;SDS011;22472;50.848;-1.216;2024-03-08T10:23:29;34.08;;;22.23;;
36445;SDS011;22472;50.848;-1.216;2024-03-08T10:25:56;35.20;;;22.00;;
36445;SDS011;22472;50.848;-1.216;2024-03-08T10:28:24;33.30;;;22.83;;
36445;SDS011;22472;50.848;-1.216;2024-03-08T10:30:53;31.92;;;21.60;;
36445;SDS011;22472;50.848;-1.216;2024-03-08T10:33:23;33.33;;;20.85;;
36445;SDS011;22472;50.848;-1.216;2024-03-08T10:35:52;36.28;;;22.25;;
36445;SDS011;22472;50.848;-1.216;2024-03-08T10:38:21;33.00;;;21.60;;
36445;SDS011;22472;50.848;-1.216;2024-03-08T10:40:49;31.67;;;21.40;;
36445;SDS011;22472;50.848;-1.216;2024-03-08T10:43:22;33.28;;;21.88;;
36445;SDS011;22472;50.848;-1.216;2024-03-08T10:45:50;35.33;;;22.00;;
36445;SDS011;22472;50.848;-1.216;2024-03-08T10:48:26;33.03;;;21.98;;
36445;SDS011;22472;50.848;-1.216;2024-03-08T10:50:58;31.60;;;20.98;;
36445;SDS011;22472;50.848;-1.216;2024-03-08T10:53:26;30.50;;;20.30;;
36445;SDS011;22472;50.848;-1.216;2024-03-08T10:55:54;30.67;;;20.50;;
36445;SDS011;22472;50.848;-1.216;2024-03-08T10:58:23;31.35;;;20.92;;
36445;SDS011;22472;50.848;-1.216;2024-03-08T11:00:52;31.98;;;20.38;;
36445;SDS011;22472;50.848;-1.216;2024-03-08T11:06:07;30.83;;;18.63;;
36445;SDS011;22472;50.848;-1.216;2024-03-08T11:08:35;27.10;;;18.33;;
36445;SDS011;22472;50.848;-1.216;2024-03-08T11:11:04;25.45;;;17.75;;
36445;SDS011;22472;50.848;-1.216;2024-03-08T11:13:32;26.48;;;17.83;;
36445;SDS011;22472;50.848;-1.216;2024-03-08T11:15:59;26.42;;;17.65;;
36445;SDS011;22472;50.848;-1.216;2024-03-08T11:18:32;25.25;;;16.55;;
36445;SDS011;22472;50.848;-1.216;2024-03-08T11:21:02;25.63;;;16.85;;
36445;SDS011;22472;50.848;-1.216;2024-03-08T11:23:33;26.05;;;17.60;;
36445;SDS011;22472;50.848;-1.216;2024-03-08T11:26:00;25.77;;;16.70;;
36445;SDS011;22472;50.848;-1.216;2024-03-08T11:28:32;26.10;;;17.08;;
36445;SDS011;22472;50.848;-1.216;2024-03-08T11:33:54;26.42;;;16.30;;
36445;SDS011;22472;50.848;-1.216;2024-03-08T11:36:23;26.63;;;16.88;;
36445;SDS011;22472;50.848;-1.216;2024-03-08T11:38:52;23.55;;;16.45;;
36445;SDS011;22472;50.848;-1.216;2024-03-08T11:41:21;24.20;;;15.80;;
36445;SDS011;22472;50.848;-1.216;2024-03-08T11:43:49;26.38;;;16.65;;
36445;SDS011;22472;50.848;-1.216;2024-03-08T11:46:17;23.67;;;16.02;;
36445;SDS011;22472;50.848;-1.216;2024-03-08T11:48:46;24.65;;;15.93;;
36445;SDS011;22472;50.848;-1.216;2024-03-08T11:51:14;24.15;;;15.85;;
36445;SDS011;22472;50.848;-1.216;2024-03-08T11:53:43;22.25;;;15.55;;
36445;SDS011;22472;50.848;-1.216;2024-03-08T11:56:13;22.13;;;14.93;;
36445;SDS011;22472;50.848;-1.216;2024-03-08T11:58:40;23.52;;;15.35;;
36445;SDS011;22472;50.848;-1.216;2024-03-08T12:01:08;22.65;;;15.18;;
36445;SDS011;22472;50.848;-1.216;2024-03-08T12:03:37;26.33;;;16.00;;
36445;SDS011;22472;50.848;-1.216;2024-03-08T12:06:04;24.00;;;15.77;;
36445;SDS011;22472;50.848;-1.216;2024-03-08T12:08:34;23.35;;;15.27;;
36445;SDS011;22472;50.848;-1.216;2024-03-08T12:11:03;20.02;;;14.48;;
36445;SDS011;22472;50.848;-1.216;2024-03-08T12:13:33;22.02;;;15.95;;
36445;SDS011;22472;50.848;-1.216;2024-03-08T12:16:00;24.50;;;15.32;;
36445;SDS011;22472;50.848;-1.216;2024-03-08T12:18:32;22.58;;;15.45;;
36445;SDS011;22472;50.848;-1.216;2024-03-08T12:21:06;22.80;;;15.88;;
36445;SDS011;22472;50.848;-1.216;2024-03-08T12:23:33;22.90;;;14.77;;
36445;SDS011;22472;50.848;-1.216;2024-03-08T12:26:11;20.58;;;14.07;;
36445;SDS011;22472;50.848;-1.216;2024-03-08T12:28:40;20.50;;;14.15;;
36445;SDS011;22472;50.848;-1.216;2024-03-08T12:31:09;22.30;;;13.80;;
36445;SDS011;22472;50.848;-1.216;2024-03-08T12:33:48;19.45;;;13.75;;
36445;SDS011;22472;50.848;-1.216;2024-03-08T12:36:15;19.55;;;13.88;;
36445;SDS011;22472;50.848;-1.216;2024-03-08T12:38:43;18.42;;;12.77;;
36445;SDS011;22472;50.848;-1.216;2024-03-08T12:41:13;20.55;;;13.27;;
36445;SDS011;22472;50.848;-1.216;2024-03-08T12:43:41;21.27;;;13.38;;
36445;SDS011;22472;50.848;-1.216;2024-03-08T12:46:13;19.50;;;12.98;;
36445;SDS011;22472;50.848;-1.216;2024-03-08T12:48:40;18.95;;;13.35;;
36445;SDS011;22472;50.848;-1.216;2024-03-08T12:51:12;20.30;;;13.15;;
36445;SDS011;22472;50.848;-1.216;2024-03-08T12:53:40;18.38;;;12.85;;
36445;SDS011;22472;50.848;-1.216;2024-03-08T12:56:09;19.85;;;11.98;;
36445;SDS011;22472;50.848;-1.216;2024-03-08T12:58:36;17.00;;;11.75;;
36445;SDS011;22472;50.848;-1.216;2024-03-08T13:01:05;17.10;;;12.45;;
36445;SDS011;22472;50.848;-1.216;2024-03-08T13:03:33;20.15;;;12.80;;
36445;SDS011;22472;50.848;-1.216;2024-03-08T13:06:00;16.80;;;12.40;;
36445;SDS011;22472;50.848;-1.216;2024-03-08T13:08:28;19.45;;;12.57;;
36445;SDS011;22472;50.848;-1.216;2024-03-08T13:10:56;17.77;;;12.25;;
36445;SDS011;22472;50.848;-1.216;2024-03-08T13:13:24;19.08;;;11.88;;
36445;SDS011;22472;50.848;-1.216;2024-03-08T13:15:51;17.75;;;11.98;;
36445;SDS011;22472;50.848;-1.216;2024-03-08T13:18:20;17.50;;;12.40;;
36445;SDS011;22472;50.848;-1.216;2024-03-08T13:20:47;18.13;;;11.88;;
36445;SDS011;22472;50.848;-1.216;2024-03-08T13:23:17;16.38;;;11.50;;
36445;SDS011;22472;50.848;-1.216;2024-03-08T13:25:44;17.73;;;10.65;;
36445;SDS011;22472;50.848;-1.216;2024-03-08T13:28:12;16.80;;;11.82;;
36445;SDS011;22472;50.848;-1.216;2024-03-08T13:30:40;16.75;;;12.38;;
36445;SDS011;22472;50.848;-1.216;2024-03-08T13:33:09;17.88;;;12.13;;
36445;SDS011;22472;50.848;-1.216;2024-03-08T13:35:37;16.85;;;11.45;;
36445;SDS011;22472;50.848;-1.216;2024-03-08T13:38:06;19.83;;;11.60;;
36445;SDS011;22472;50.848;-1.216;2024-03-08T13:40:36;15.82;;;11.38;;
36445;SDS011;22472;50.848;-1.216;2024-03-08T13:43:05;15.98;;;11.07;;
36445;SDS011;22472;50.848;-1.216;2024-03-08T13:45:32;16.80;;;10.85;;
36445;SDS011;22472;50.848;-1.216;2024-03-08T13:48:03;14.23;;;10.60;;
36445;SDS011;22472;50.848;-1.216;2024-03-08T13:50:30;16.52;;;10.80;;
36445;SDS011;22472;50.848;-1.216;2024-03-08T13:52:59;16.52;;;10.98;;
36445;SDS011;22472;50.848;-1.216;2024-03-08T13:55:26;13.05;;;10.00;;
36445;SDS011;22472;50.848;-1.216;2024-03-08T13:57:53;15.95;;;10.65;;
36445;SDS011;22472;50.848;-1.216;2024-03-08T14:00:22;14.90;;;10.02;;
36445;SDS011;22472;50.848;-1.216;2024-03-08T14:02:52;17.52;;;10.40;;
36445;SDS011;22472;50.848;-1.216;2024-03-08T14:05:20;16.65;;;10.82;;
36445;SDS011;22472;50.848;-1.216;2024-03-08T14:07:47;15.68;;;10.65;;
36445;SDS011;22472;50.848;-1.216;2024-03-08T14:10:16;16.92;;;10.85;;
36445;SDS011;22472;50.848;-1.216;2024-03-08T14:12:45;15.75;;;11.15;;
36445;SDS011;22472;50.848;-1.216;2024-03-08T14:15:15;14.15;;;10.13;;
36445;SDS011;22472;50.848;-1.216;2024-03-08T14:20:13;15.43;;;9.77;;
36445;SDS011;22472;50.848;-1.216;2024-03-08T14:22:42;15.68;;;10.05;;
36445;SDS011;22472;50.848;-1.216;2024-03-08T14:25:09;12.63;;;9.10;;
36445;SDS011;22472;50.848;-1.216;2024-03-08T14:27:43;14.00;;;9.48;;